createdAt,value
2022-08-17T00:05:35.849Z,28.10
2022-08-17T00:12:40.832Z,27.70
2022-08-17T00:19:06.275Z,27.50
2022-08-17T00:24:17.810Z,27.40
2022-08-17T00:30:53.079Z,27.40
2022-08-17T00:36:46.738Z,27.20
2022-08-17T00:42:59.444Z,27.00
2022-08-17T00:49:11.922Z,26.90
2022-08-17T00:55:24.724Z,26.80
2022-08-17T01:01:38.974Z,26.80
2022-08-17T01:07:53.155Z,26.70
2022-08-17T01:14:07.338Z,26.60
2022-08-17T01:20:19.295Z,26.50
2022-08-17T01:26:31.534Z,26.40
2022-08-17T01:32:44.696Z,26.40
2022-08-17T01:38:58.779Z,26.30
2022-08-17T01:45:17.227Z,26.30
2022-08-17T01:51:32.961Z,26.20
2022-08-17T01:57:47.957Z,26.10
2022-08-17T02:04:01.363Z,26.00
2022-08-17T02:10:20.324Z,26.00
2022-08-17T02:16:37.459Z,25.90
2022-08-17T02:22:51.415Z,25.90
2022-08-17T02:29:06.461Z,25.80
2022-08-17T02:35:20.927Z,25.70
2022-08-17T02:41:35.381Z,25.70
2022-08-17T02:47:47.068Z,25.70
2022-08-17T02:54:39.105Z,25.70
2022-08-17T03:00:19.163Z,25.70
2022-08-17T03:06:34.195Z,25.70
2022-08-17T03:12:48.866Z,25.60
2022-08-17T03:19:02.195Z,25.60
2022-08-17T03:25:19.560Z,25.60
2022-08-17T03:31:37.084Z,25.50
2022-08-17T03:38:00.131Z,25.40
2022-08-17T03:44:06.147Z,25.40
2022-08-17T03:50:40.411Z,25.30
2022-08-17T03:56:58.583Z,25.20
2022-08-17T04:03:12.960Z,25.20
2022-08-17T04:09:25.229Z,25.20
2022-08-17T04:15:37.885Z,25.10
2022-08-17T04:21:50.819Z,25.10
2022-08-17T04:28:05.269Z,25.00
2022-08-17T04:34:22.674Z,24.90
2022-08-17T04:40:47.514Z,24.90
2022-08-17T04:47:01.894Z,24.90
2022-08-17T04:53:16.073Z,24.80
2022-08-17T04:59:30.311Z,24.70
2022-08-17T05:05:45.658Z,24.60
2022-08-17T05:12:01.290Z,24.60
2022-08-17T05:18:14.087Z,24.50
2022-08-17T05:24:42.478Z,24.50
2022-08-17T05:30:43.538Z,24.40
2022-08-17T05:36:54.910Z,24.40
2022-08-17T05:43:14.888Z,24.30
2022-08-17T05:49:31.346Z,24.40
2022-08-17T05:55:47.899Z,24.60
2022-08-17T06:01:58.863Z,24.60
2022-08-17T06:08:14.568Z,24.70
2022-08-17T06:14:33.955Z,24.70
2022-08-17T06:20:51.437Z,24.70
2022-08-17T06:27:07.730Z,24.80
2022-08-17T06:33:21.414Z,24.80
2022-08-17T06:39:41.188Z,24.90
2022-08-17T06:45:56.580Z,24.90
2022-08-17T06:52:12.207Z,24.90
2022-08-17T06:58:29.634Z,24.90
2022-08-17T07:04:44.856Z,24.90
2022-08-17T07:10:58.834Z,25.00
2022-08-17T07:17:13.809Z,24.90
2022-08-17T07:23:29.269Z,25.00
2022-08-17T07:29:43.964Z,24.90
2022-08-17T07:35:56.720Z,25.00
2022-08-17T07:42:10.517Z,25.00
2022-08-17T07:48:26.140Z,25.00
2022-08-17T07:54:39.639Z,25.00
2022-08-17T08:00:52.537Z,25.00
2022-08-17T08:07:07.863Z,25.00
2022-08-17T08:13:24.254Z,25.00
2022-08-17T08:19:37.267Z,25.00
2022-08-17T08:25:54.803Z,25.00
2022-08-17T08:32:12.867Z,25.00
2022-08-17T08:38:26.167Z,25.00
2022-08-17T08:45:03.535Z,25.00
2022-08-17T08:51:03.198Z,24.90
2022-08-17T08:57:30.901Z,25.00
2022-08-17T09:04:24.297Z,25.00
2022-08-17T09:10:29.006Z,24.90
2022-08-17T09:16:46.323Z,24.90
2022-08-17T09:23:03.323Z,24.90
2022-08-17T09:29:18.069Z,24.90
2022-08-17T09:35:37.030Z,24.90
2022-08-17T09:41:51.673Z,24.90
2022-08-17T09:48:07.669Z,24.90
2022-08-17T09:54:38.591Z,24.90
2022-08-17T10:00:41.043Z,24.90
2022-08-17T10:06:56.186Z,24.90
2022-08-17T10:13:11.918Z,24.80
2022-08-17T10:19:28.699Z,24.90
2022-08-17T10:26:16.247Z,24.90
2022-08-17T10:32:35.556Z,24.90
2022-08-17T10:38:48.890Z,24.80
2022-08-17T10:45:05.782Z,24.80
2022-08-17T10:51:22.896Z,24.80
2022-08-17T10:58:03.785Z,24.90
2022-08-17T11:04:19.993Z,24.90
2022-08-17T11:10:51.827Z,24.70
2022-08-17T11:17:09.718Z,24.80
2022-08-17T11:23:31.834Z,24.90
2022-08-17T11:29:50.599Z,24.90
2022-08-17T11:36:03.451Z,24.90
2022-08-17T11:42:20.406Z,24.70
2022-08-17T11:48:52.908Z,24.80
2022-08-17T11:55:31.780Z,24.90
2022-08-17T12:01:21.154Z,25.00
2022-08-17T12:07:35.356Z,25.00
2022-08-17T12:13:50.758Z,25.10
2022-08-17T12:20:04.991Z,25.10
2022-08-17T12:26:18.667Z,25.20
2022-08-17T12:32:33.206Z,25.20
2022-08-17T12:38:47.502Z,25.20
2022-08-17T12:45:00.565Z,25.10
2022-08-17T12:51:13.962Z,25.20
2022-08-17T12:57:27.719Z,25.30
2022-08-17T13:03:43.194Z,25.40
2022-08-17T13:09:57.206Z,25.40
2022-08-17T13:16:07.207Z,25.50
2022-08-17T13:22:20.678Z,25.50
2022-08-17T13:28:35.958Z,25.60
2022-08-17T13:35:12.648Z,25.70
2022-08-17T13:41:08.108Z,25.80
2022-08-17T13:47:25.045Z,25.80
2022-08-17T13:53:40.474Z,25.80
2022-08-17T13:59:55.987Z,25.80
2022-08-17T14:06:11.356Z,25.90
2022-08-17T14:12:27.638Z,25.90
2022-08-17T14:18:56.636Z,26.00
2022-08-17T14:24:52.986Z,26.20
2022-08-17T14:31:07.051Z,26.20
2022-08-17T14:37:19.451Z,26.20
2022-08-17T14:43:31.889Z,26.30
2022-08-17T14:49:47.558Z,26.30
2022-08-17T14:56:00.652Z,26.40
2022-08-17T15:02:14.006Z,26.50
2022-08-17T15:08:28.073Z,26.60
2022-08-17T15:14:42.225Z,26.70
2022-08-17T15:20:54.410Z,26.70
2022-08-17T15:27:08.279Z,26.70
2022-08-17T15:33:23.464Z,26.70
2022-08-17T15:39:37.475Z,26.80
2022-08-17T15:45:59.600Z,26.80
2022-08-17T15:52:03.746Z,26.90
2022-08-17T15:58:19.259Z,27.00
2022-08-17T16:04:31.669Z,27.00
2022-08-17T16:10:46.019Z,27.20
2022-08-17T16:16:58.158Z,27.30
2022-08-17T16:23:13.585Z,27.40
2022-08-17T16:29:28.016Z,27.50
2022-08-17T16:35:40.431Z,27.50
2022-08-17T16:41:53.503Z,27.50
2022-08-17T16:48:07.728Z,27.50
2022-08-17T16:54:20.149Z,27.50
2022-08-17T17:00:33.657Z,27.60
2022-08-17T17:06:50.768Z,27.60
2022-08-17T17:13:04.613Z,27.60
2022-08-17T17:19:34.387Z,27.60
2022-08-17T17:25:35.715Z,27.60
2022-08-17T17:31:50.515Z,27.70
2022-08-17T17:38:04.498Z,27.70
2022-08-17T17:44:19.818Z,27.70
2022-08-17T17:50:35.495Z,27.70
2022-08-17T17:56:49.521Z,27.70
2022-08-17T18:03:29.216Z,27.80
2022-08-17T18:09:51.795Z,27.80
2022-08-17T18:16:07.347Z,27.80
2022-08-17T18:22:22.949Z,27.80
2022-08-17T18:28:38.804Z,27.80
2022-08-17T18:34:53.844Z,27.80
2022-08-17T18:41:10.091Z,27.70
2022-08-17T18:47:25.037Z,27.70
2022-08-17T18:53:55.639Z,27.70
2022-08-17T19:00:06.529Z,27.70
2022-08-17T19:06:28.182Z,27.70
2022-08-17T19:12:45.454Z,27.70
2022-08-17T19:18:59.471Z,27.60
2022-08-17T19:25:16.244Z,27.60
2022-08-17T19:31:31.434Z,27.60
2022-08-17T19:37:47.244Z,27.70
2022-08-17T19:51:01.167Z,27.70
2022-08-17T19:57:18.270Z,27.70
2022-08-17T20:03:35.398Z,27.70
2022-08-17T20:09:49.687Z,27.70
2022-08-17T20:16:03.761Z,27.70
2022-08-17T20:22:20.816Z,27.60
2022-08-17T20:28:32.849Z,27.70
2022-08-17T20:34:47.186Z,27.70
2022-08-17T20:41:19.406Z,27.40
2022-08-17T20:47:32.304Z,27.20
2022-08-17T20:54:05.272Z,27.00
2022-08-17T21:00:21.790Z,26.90
2022-08-17T21:06:35.975Z,26.80
2022-08-17T21:12:50.312Z,26.80
2022-08-17T21:19:07.509Z,26.70
2022-08-17T21:25:28.305Z,26.80
2022-08-17T21:31:42.359Z,27.00
2022-08-17T21:37:55.953Z,27.10
2022-08-17T21:44:12.110Z,27.30
2022-08-17T21:50:22.038Z,27.30
2022-08-17T21:56:38.588Z,27.40
2022-08-17T22:02:50.914Z,27.10
2022-08-17T22:09:25.069Z,26.90
2022-08-17T22:15:40.630Z,26.80
2022-08-17T22:21:54.812Z,26.80
2022-08-17T22:28:09.855Z,27.00
2022-08-17T22:34:22.543Z,27.00
2022-08-17T22:40:37.865Z,27.10
2022-08-17T22:46:54.188Z,27.20
2022-08-17T22:53:22.797Z,27.20
2022-08-17T23:06:26.710Z,27.30
2022-08-17T23:12:42.659Z,27.30
2022-08-17T23:18:55.828Z,27.30
2022-08-17T23:25:10.605Z,27.30
2022-08-17T23:31:25.841Z,27.40
2022-08-17T23:37:39.508Z,27.40
2022-08-17T23:43:53.226Z,27.40
2022-08-17T23:50:08.784Z,27.50
2022-08-17T23:56:24.795Z,27.60
